Bafra, Turkey
Current Conditions -  °F | °C
As of 8:50 PM on Wednesday 28 Jan 2015 (Local Time) from LTFH Reporting Station
Broken Clouds Broken Clouds  
Wind Chill: 45°   Ceiling: 10000
Heat Index: 45°   Visibility: 6mi
Dew Point: 43°   Wind: 2mph
Humidity: 93%   Direction: NA
Pressure: 29.83"   Gusts: NA
Location:  41.57°N, 35.89°E
Report Text: LTFH 281750Z VRB02KT 9999 FEW036 BKN100 07/06 Q1010 NOSIG
Loading
Personal Weather Stations






























Interactive Weather Map New forecast layout! Learn more

10-Day Weather Forecast

Advertisements
Track Severe Weather on mobile